Shebandowan, Canada
Current Conditions -  °F | °C
As of 8:00 PM on Thursday 20 Nov 2014 (Local Time) from CYQT Reporting Station
Clear Clear  
Wind Chill: -11°   Ceiling: Unl
Heat Index:   Visibility: 15mi
Dew Point: -4°   Wind: 7mph
Humidity: 78%   Direction: 230°SW
Pressure: 30.11"   Gusts: NA
Location:  48.63°N, 90.07°W
Report Text: CYQT 210200Z 23006KT 15SM SKC M17/M20 A3011 RMK SLP217
Loading
Personal Weather Stations






























Interactive Weather Map New forecast layout! Learn more

10-Day Weather Forecast

Advertisements
Track Severe Weather on mobile